Time;durP1;ratioP1;P1;durP2;ratioP2;P2;SDS_P1;SDS_P2;PMS_P1;PMS_P2;Temp;Humidity;BMP_temperature;BMP_pressure;BME280_temperature;BME280_humidity;BME280_pressure;Samples;Min_cycle;Max_cycle;Signal;HPM_P1;HPM_P2
2021/01/29 00:00:12;;;;;;;6.22;5.72;;;0.40;99.90;;;;;;5062252;28;20232;-74
2021/01/29 00:02:39;;;;;;;6.18;5.68;;;0.40;99.90;;;;;;5054652;28;20218;-75
2021/01/29 00:05:06;;;;;;;5.28;4.97;;;0.40;99.90;;;;;;5060876;28;20226;-76
2021/01/29 00:07:33;;;;;;;6.20;5.80;;;0.40;99.90;;;;;;5056046;28;20228;-74
2021/01/29 00:10:01;;;;;;;6.20;5.80;;;0.40;99.90;;;;;;5061828;28;20232;-75
2021/01/29 00:12:28;;;;;;;6.07;5.68;;;0.40;99.90;;;;;;5065570;28;20766;-75
2021/01/29 00:14:54;;;;;;;6.15;5.75;;;0.40;99.90;;;;;;5064199;28;20730;-75
2021/01/29 00:17:21;;;;;;;6.20;5.70;;;0.40;99.90;;;;;;5060991;28;20214;-74
2021/01/29 00:19:48;;;;;;;6.43;5.93;;;0.40;99.90;;;;;;5061667;28;20237;-75
2021/01/29 00:22:14;;;;;;;6.35;5.85;;;0.40;99.90;;;;;;5063678;28;20214;-74
2021/01/29 00:24:41;;;;;;;7.00;6.47;;;0.40;99.90;;;;;;5064309;28;20238;-74
2021/01/29 00:27:08;;;;;;;6.45;6.05;;;0.30;99.90;;;;;;5061603;28;20222;-75
2021/01/29 00:29:35;;;;;;;6.30;5.80;;;0.30;99.90;;;;;;5059779;28;20221;-75
2021/01/29 00:32:02;;;;;;;8.05;6.95;;;0.30;99.90;;;;;;5060504;28;20294;-74
2021/01/29 00:34:28;;;;;;;7.07;6.50;;;0.30;99.90;;;;;;5063478;28;20222;-75
2021/01/29 00:36:55;;;;;;;8.38;7.30;;;0.30;99.90;;;;;;5055782;28;20724;-74
2021/01/29 00:39:21;;;;;;;7.82;7.05;;;0.30;99.90;;;;;;5064238;28;20246;-75
2021/01/29 00:41:48;;;;;;;8.02;7.32;;;0.20;99.90;;;;;;5057346;28;20230;-75
2021/01/29 00:44:15;;;;;;;7.00;6.50;;;0.20;99.90;;;;;;5058005;28;20237;-75
2021/01/29 00:46:42;;;;;;;7.55;7.00;;;0.10;99.90;;;;;;5057361;28;20220;-76
2021/01/29 00:49:09;;;;;;;7.10;6.60;;;0.10;99.90;;;;;;5061678;28;20248;-75
2021/01/29 00:51:35;;;;;;;6.57;6.18;;;0.10;99.90;;;;;;5059366;28;20278;-75
2021/01/29 00:54:02;;;;;;;7.72;7.13;;;0.10;99.90;;;;;;5063311;28;20225;-73
2021/01/29 00:56:28;;;;;;;9.07;8.18;;;0.10;99.90;;;;;;5059714;28;20226;-75
2021/01/29 00:58:55;;;;;;;7.95;7.35;;;0.10;99.90;;;;;;5061733;28;20218;-75
2021/01/29 01:01:22;;;;;;;8.70;7.90;;;-0.10;99.90;;;;;;5060423;28;20218;-75
2021/01/29 01:03:49;;;;;;;8.75;8.05;;;-0.20;99.90;;;;;;5058105;28;20748;-75
2021/01/29 01:06:15;;;;;;;8.73;7.95;;;-0.30;99.90;;;;;;5059401;28;20635;-75
2021/01/29 01:08:42;;;;;;;8.90;8.13;;;-0.40;99.90;;;;;;5057699;28;20226;-76
2021/01/29 01:11:09;;;;;;;9.13;8.27;;;-0.50;99.90;;;;;;5062457;28;20221;-74
2021/01/29 01:13:35;;;;;;;8.77;8.15;;;-0.50;99.90;;;;;;5049754;28;20227;-75
2021/01/29 01:16:02;;;;;;;8.48;7.78;;;-0.50;99.90;;;;;;5047468;28;20227;-75
2021/01/29 01:18:29;;;;;;;8.80;8.10;;;-0.50;99.90;;;;;;5042247;28;20582;-75
2021/01/29 01:20:56;;;;;;;8.57;7.88;;;-0.40;99.90;;;;;;5041841;28;20267;-74
2021/01/29 01:23:22;;;;;;;8.57;7.93;;;-0.50;99.90;;;;;;5040801;28;20222;-75
2021/01/29 01:25:49;;;;;;;10.55;9.60;;;-0.40;99.90;;;;;;5040974;28;20231;-75
2021/01/29 01:28:15;;;;;;;10.10;9.15;;;-0.50;99.90;;;;;;5038680;28;20473;-75
2021/01/29 01:30:42;;;;;;;9.82;8.93;;;-0.50;99.90;;;;;;5041362;28;20284;-75
2021/01/29 01:33:09;;;;;;;10.18;9.07;;;-0.60;99.90;;;;;;5041910;28;20724;-75
2021/01/29 01:35:36;;;;;;;8.55;7.95;;;-0.60;99.90;;;;;;5039650;28;20222;-77
2021/01/29 01:38:03;;;;;;;7.72;7.13;;;-0.60;99.90;;;;;;5052687;28;20225;-75
2021/01/29 01:40:33;;;;;;;7.82;7.20;;;-0.60;99.90;;;;;;5062847;28;20229;-76
2021/01/29 01:42:59;;;;;;;8.18;7.55;;;-0.60;99.90;;;;;;5061362;28;20226;-74
2021/01/29 01:45:58;;;;;;;7.90;7.30;;;-0.50;99.90;;;;;;5058736;28;20285;-76
2021/01/29 01:48:42;;;;;;;7.28;6.78;;;-0.40;99.90;;;;;;5064372;28;20523;-76
2021/01/29 01:51:13;;;;;;;7.75;7.25;;;-0.40;99.90;;;;;;5064853;28;20518;-75
2021/01/29 01:53:43;;;;;;;7.40;6.90;;;-0.30;99.90;;;;;;5063055;28;20233;-74
2021/01/29 01:56:15;;;;;;;7.55;6.85;;;-0.30;99.90;;;;;;5065186;28;20643;-75
2021/01/29 01:58:47;;;;;;;7.18;6.60;;;-0.20;99.90;;;;;;5067125;28;20225;-77
2021/01/29 02:01:14;;;;;;;6.80;6.30;;;-0.20;99.90;;;;;;5064259;28;20608;-75
2021/01/29 02:03:41;;;;;;;7.65;7.05;;;-0.10;99.90;;;;;;5058608;28;20229;-75
2021/01/29 02:06:11;;;;;;;6.63;6.22;;;-0.10;99.90;;;;;;5063676;28;20229;-75
2021/01/29 02:08:41;;;;;;;8.48;7.78;;;-0.10;99.90;;;;;;5070892;28;20218;-75
2021/01/29 02:11:08;;;;;;;8.13;7.53;;;-0.10;99.90;;;;;;5065411;28;20226;-75
2021/01/29 02:13:34;;;;;;;11.20;8.35;;;-0.20;99.90;;;;;;5067370;28;20229;-75
2021/01/29 02:16:12;;;;;;;9.13;8.43;;;-0.20;99.90;;;;;;5063753;28;20237;-75
2021/01/29 02:18:55;;;;;;;8.50;7.80;;;-0.30;99.90;;;;;;5058888;28;20233;-74
2021/01/29 02:22:01;;;;;;;9.80;8.90;;;-0.40;99.90;;;;;;5061160;28;20206;-75
2021/01/29 02:25:07;;;;;;;8.70;8.00;;;-0.50;99.90;;;;;;5060714;28;20286;-75
2021/01/29 02:27:43;;;;;;;9.60;8.70;;;-0.60;99.90;;;;;;5036839;28;20222;-75
2021/01/29 02:30:32;;;;;;;9.30;8.50;;;-0.60;99.90;;;;;;5061698;28;20227;-74
2021/01/29 02:33:36;;;;;;;8.00;7.30;;;-0.60;99.90;;;;;;5059373;28;20754;-75
2021/01/29 02:36:55;;;;;;;9.27;8.45;;;-0.50;99.90;;;;;;5062529;28;20267;-73
2021/01/29 02:39:50;;;;;;;8.13;7.53;;;-0.40;99.90;;;;;;5044133;28;20689;-76
2021/01/29 02:43:00;;;;;;;7.38;6.78;;;-0.30;99.90;;;;;;5061383;28;20226;-75
2021/01/29 02:45:31;;;;;;;8.02;7.30;;;-0.30;99.90;;;;;;4990941;28;20295;-74
2021/01/29 02:48:09;;;;;;;8.63;7.78;;;-0.20;99.90;;;;;;4982050;28;20613;-74
2021/01/29 02:50:44;;;;;;;8.18;7.47;;;-0.20;99.90;;;;;;5015505;28;20708;-76
2021/01/29 02:53:21;;;;;;;7.32;6.75;;;-0.20;99.90;;;;;;5040228;28;20226;-74
2021/01/29 02:55:56;;;;;;;8.02;7.28;;;-0.30;99.90;;;;;;5036124;28;20223;-76
2021/01/29 02:58:32;;;;;;;8.38;7.68;;;-0.30;99.90;;;;;;5035708;28;20236;-77
2021/01/29 03:01:03;;;;;;;8.32;7.63;;;-0.40;99.90;;;;;;5049251;28;20215;-74
2021/01/29 03:03:35;;;;;;;8.30;7.63;;;-0.50;99.90;;;;;;5038384;28;20238;-75
2021/01/29 03:06:10;;;;;;;8.30;7.50;;;-0.60;99.90;;;;;;5038519;28;20219;-75
2021/01/29 03:08:41;;;;;;;8.15;7.55;;;-0.60;99.90;;;;;;5039777;28;20257;-75
2021/01/29 03:11:13;;;;;;;8.10;7.50;;;-0.70;99.90;;;;;;5046618;28;20225;-74
2021/01/29 03:13:44;;;;;;;8.32;7.72;;;-0.70;99.90;;;;;;5058971;28;20283;-76
2021/01/29 03:16:17;;;;;;;7.25;6.65;;;-0.60;99.90;;;;;;5037219;28;20214;-75
2021/01/29 03:18:51;;;;;;;7.35;6.75;;;-0.60;99.90;;;;;;5038201;28;20222;-76
2021/01/29 03:21:22;;;;;;;8.00;7.40;;;-0.50;99.90;;;;;;5035541;28;20223;-75
2021/01/29 03:23:54;;;;;;;8.57;7.88;;;-0.50;99.90;;;;;;5039545;28;20219;-75
2021/01/29 03:26:25;;;;;;;8.00;7.40;;;-0.50;99.90;;;;;;5035989;28;20253;-74
2021/01/29 03:28:57;;;;;;;7.60;7.10;;;-0.40;99.90;;;;;;5033946;28;20268;-74
2021/01/29 03:31:24;;;;;;;8.02;7.32;;;-0.40;99.90;;;;;;5062263;28;20218;-76
2021/01/29 03:34:01;;;;;;;8.77;8.07;;;-0.40;99.90;;;;;;5062390;28;20233;-75
2021/01/29 03:36:33;;;;;;;8.25;7.65;;;-0.40;99.90;;;;;;5057567;28;20226;-75
2021/01/29 03:39:06;;;;;;;7.82;7.28;;;-0.30;99.90;;;;;;5058898;28;20229;-77
2021/01/29 03:41:37;;;;;;;9.27;8.35;;;-0.30;99.90;;;;;;5063965;28;20280;-75
2021/01/29 03:44:15;;;;;;;8.10;7.45;;;-0.30;99.90;;;;;;5058452;28;20695;-75
2021/01/29 03:46:51;;;;;;;7.68;7.05;;;-0.30;99.90;;;;;;5058904;28;20223;-75
2021/01/29 03:49:22;;;;;;;8.55;7.85;;;-0.30;99.90;;;;;;5057264;28;20225;-75
2021/01/29 03:52:06;;;;;;;8.07;7.53;;;-0.30;99.90;;;;;;5057382;28;20226;-74
2021/01/29 03:54:36;;;;;;;8.52;7.72;;;-0.20;99.90;;;;;;5073600;28;20696;-77
2021/01/29 03:57:15;;;;;;;8.02;7.43;;;-0.20;99.90;;;;;;5054117;28;20253;-75
2021/01/29 03:59:58;;;;;;;8.80;8.05;;;-0.10;99.90;;;;;;5065066;28;20222;-76
2021/01/29 04:02:31;;;;;;;7.68;7.07;;;-0.10;99.90;;;;;;5059865;28;20599;-74
2021/01/29 04:05:06;;;;;;;7.88;7.28;;;0.00;99.90;;;;;;5057587;28;20304;-75
2021/01/29 04:07:38;;;;;;;8.40;7.70;;;0.00;99.90;;;;;;5054248;28;20279;-74
2021/01/29 04:10:08;;;;;;;8.40;7.70;;;0.00;99.90;;;;;;5061787;28;20214;-74
2021/01/29 04:12:42;;;;;;;8.13;7.43;;;0.00;99.90;;;;;;5059502;28;20257;-74
2021/01/29 04:15:15;;;;;;;7.43;6.75;;;0.00;99.90;;;;;;5054565;28;20214;-76
2021/01/29 04:17:49;;;;;;;8.50;7.80;;;0.00;99.90;;;;;;5061355;28;20233;-75
2021/01/29 04:20:24;;;;;;;7.88;7.15;;;0.00;99.90;;;;;;5056157;28;20223;-73
2021/01/29 04:22:55;;;;;;;7.85;7.22;;;0.00;99.90;;;;;;5055016;28;20237;-74
2021/01/29 04:25:26;;;;;;;7.30;6.70;;;0.00;99.90;;;;;;5060764;28;20229;-74
2021/01/29 04:28:01;;;;;;;7.35;6.75;;;0.00;99.90;;;;;;5066119;28;20214;-75
2021/01/29 04:30:31;;;;;;;7.50;6.90;;;0.00;99.90;;;;;;5059010;28;20221;-74
2021/01/29 04:33:02;;;;;;;7.90;7.38;;;0.00;99.90;;;;;;5057705;28;20281;-74
2021/01/29 04:35:31;;;;;;;8.63;7.70;;;0.00;99.90;;;;;;5058250;28;20214;-74
2021/01/29 04:38:07;;;;;;;8.25;7.65;;;0.00;99.90;;;;;;5056286;28;20636;-76
2021/01/29 04:40:44;;;;;;;7.65;7.15;;;0.00;99.90;;;;;;5058492;28;20226;-76
2021/01/29 04:43:35;;;;;;;7.13;6.50;;;0.00;99.90;;;;;;5063430;28;20218;-75
2021/01/29 04:46:16;;;;;;;8.63;7.97;;;0.00;99.90;;;;;;5061863;28;20222;-75
2021/01/29 04:48:50;;;;;;;8.95;7.90;;;-0.10;99.90;;;;;;5059697;28;20696;-75
2021/01/29 04:51:38;;;;;;;8.45;7.80;;;-0.10;99.90;;;;;;5053419;28;20761;-74
2021/01/29 04:54:38;;;;;;;8.52;7.82;;;-0.20;99.90;;;;;;5056433;28;20221;-74
2021/01/29 04:57:27;;;;;;;7.88;7.28;;;-0.30;99.90;;;;;;5048396;28;20222;-75
2021/01/29 05:00:21;;;;;;;7.93;7.32;;;-0.20;99.90;;;;;;5039211;28;20215;-73
2021/01/29 05:03:05;;;;;;;7.47;6.90;;;-0.20;99.90;;;;;;5035995;28;20224;-75
2021/01/29 05:06:04;;;;;;;7.63;7.13;;;-0.10;99.90;;;;;;5040187;28;20656;-75
2021/01/29 05:08:46;;;;;;;6.93;6.43;;;-0.10;99.90;;;;;;5033284;28;20610;-74
2021/01/29 05:11:28;;;;;;;7.38;6.88;;;0.00;99.90;;;;;;5036845;28;20249;-76
2021/01/29 05:14:19;;;;;;;6.75;6.25;;;0.00;99.90;;;;;;5034260;28;20695;-74
2021/01/29 05:17:18;;;;;;;7.35;6.82;;;0.10;99.90;;;;;;5042535;28;20211;-75
2021/01/29 05:20:06;;;;;;;6.35;5.95;;;0.10;99.90;;;;;;5052473;28;20214;-74
2021/01/29 05:22:52;;;;;;;6.38;5.97;;;0.20;99.90;;;;;;5065343;28;20225;-74
2021/01/29 05:25:48;;;;;;;8.23;7.57;;;0.20;99.90;;;;;;5062466;28;20223;-74
2021/01/29 05:29:02;;;;;;;8.65;7.93;;;0.20;99.90;;;;;;5039060;28;20210;-75
2021/01/29 05:32:04;;;;;;;8.23;7.63;;;0.20;99.90;;;;;;5040836;28;20300;-74
2021/01/29 05:34:46;;;;;;;7.90;7.32;;;0.10;99.90;;;;;;4993499;28;20228;-77
2021/01/29 05:37:44;;;;;;;8.02;7.43;;;0.10;99.90;;;;;;5043732;28;20219;-72
2021/01/29 05:40:46;;;;;;;8.98;8.27;;;0.00;99.90;;;;;;5054646;28;20292;-75
2021/01/29 05:43:35;;;;;;;8.57;7.75;;;0.00;99.90;;;;;;5019016;28;20226;-74
2021/01/29 05:46:14;;;;;;;8.02;7.43;;;-0.10;99.90;;;;;;5045001;28;20247;-75
2021/01/29 05:49:15;;;;;;;7.75;7.15;;;0.00;99.90;;;;;;5045237;28;20225;-76
2021/01/29 05:52:29;;;;;;;8.65;8.02;;;0.00;99.90;;;;;;5039595;28;20596;-76
2021/01/29 05:55:15;;;;;;;9.48;8.68;;;0.00;99.90;;;;;;5001750;28;21030;-74
2021/01/29 05:58:09;;;;;;;8.45;7.75;;;-0.10;99.90;;;;;;5064553;28;20218;-73
2021/01/29 06:01:20;;;;;;;9.77;8.95;;;-0.20;99.90;;;;;;5061161;28;20221;-77
2021/01/29 06:04:04;;;;;;;9.27;8.57;;;-0.30;99.90;;;;;;5063439;28;20214;-74
2021/01/29 06:06:54;;;;;;;9.68;8.90;;;-0.40;99.90;;;;;;5066574;28;20221;-74
2021/01/29 06:09:37;;;;;;;8.20;7.60;;;-0.30;99.90;;;;;;5059271;28;20226;-74
2021/01/29 06:12:18;;;;;;;9.15;8.40;;;-0.30;99.90;;;;;;5064086;28;20955;-74
2021/01/29 06:15:26;;;;;;;8.18;7.55;;;-0.30;99.90;;;;;;5061592;28;20215;-73
2021/01/29 06:18:35;;;;;;;8.30;7.57;;;-0.20;99.90;;;;;;5040320;28;20597;-75
2021/01/29 06:21:21;;;;;;;8.35;7.57;;;-0.20;99.90;;;;;;5030826;28;20231;-74
2021/01/29 06:24:28;;;;;;;8.20;7.50;;;-0.20;99.90;;;;;;5048627;28;20831;-74
2021/01/29 06:27:36;;;;;;;8.55;7.95;;;-0.20;99.90;;;;;;4993667;28;20220;-74
2021/01/29 06:30:30;;;;;;;9.30;8.50;;;-0.20;99.90;;;;;;5055843;28;20248;-75
2021/01/29 06:33:19;;;;;;;8.15;7.55;;;-0.20;99.90;;;;;;5069266;28;20217;-78
2021/01/29 06:36:02;;;;;;;8.77;8.18;;;-0.20;99.90;;;;;;5048478;28;20222;-76
2021/01/29 06:38:36;;;;;;;7.88;7.18;;;-0.30;99.90;;;;;;5057245;28;20221;-76
2021/01/29 06:41:37;;;;;;;8.27;7.68;;;-0.30;99.90;;;;;;5048005;28;20226;-73
2021/01/29 06:44:14;;;;;;;7.82;7.22;;;-0.30;99.90;;;;;;5056765;28;20591;-73
2021/01/29 06:46:50;;;;;;;8.20;7.60;;;-0.20;99.90;;;;;;5053276;28;20714;-74
2021/01/29 06:49:43;;;;;;;7.90;7.25;;;-0.20;99.90;;;;;;5054156;28;20709;-75
2021/01/29 06:52:42;;;;;;;10.10;9.25;;;-0.10;99.90;;;;;;5057915;28;20226;-74
2021/01/29 06:55:37;;;;;;;9.52;8.68;;;-0.30;99.90;;;;;;5056763;28;20489;-73
2021/01/29 06:58:15;;;;;;;9.75;8.85;;;-0.40;99.90;;;;;;5053649;28;20222;-75
2021/01/29 07:01:18;;;;;;;9.95;9.05;;;-0.50;99.90;;;;;;5051146;28;20217;-75
2021/01/29 07:04:19;;;;;;;10.18;9.27;;;-0.60;99.90;;;;;;5050069;28;20218;-76
2021/01/29 07:07:00;;;;;;;9.45;8.60;;;-0.60;99.90;;;;;;5052724;28;20221;-75
2021/01/29 07:09:52;;;;;;;9.63;8.82;;;-0.50;99.90;;;;;;5054788;28;20221;-77
2021/01/29 07:12:29;;;;;;;9.25;8.45;;;-0.50;99.90;;;;;;5043323;28;20305;-73
2021/01/29 07:15:13;;;;;;;10.05;9.25;;;-0.40;99.90;;;;;;5031115;28;20230;-75
2021/01/29 07:18:10;;;;;;;9.50;8.60;;;-0.40;99.90;;;;;;5042227;28;20251;-73
2021/01/29 07:20:50;;;;;;;9.75;8.85;;;-0.20;99.90;;;;;;5038092;28;20227;-76
2021/01/29 07:23:27;;;;;;;9.18;8.38;;;0.00;99.90;;;;;;5037703;28;20222;-73
2021/01/29 07:26:08;;;;;;;10.30;9.35;;;0.10;99.90;;;;;;5049616;28;20273;-77
2021/01/29 07:28:47;;;;;;;10.88;9.75;;;0.10;99.90;;;;;;5030816;28;20842;-75
2021/01/29 07:31:31;;;;;;;9.60;8.90;;;0.10;99.90;;;;;;5031230;28;20693;-76
2021/01/29 07:34:05;;;;;;;11.13;10.13;;;0.10;99.90;;;;;;5026807;28;20219;-75
2021/01/29 07:37:20;;;;;;;13.25;11.93;;;0.00;99.90;;;;;;5034697;28;20218;-75
2021/01/29 07:40:03;;;;;;;11.43;10.45;;;-0.10;99.90;;;;;;5040019;28;20218;-75
2021/01/29 07:42:51;;;;;;;11.00;9.80;;;-0.30;99.90;;;;;;5028808;28;20731;-77
2021/01/29 07:45:32;;;;;;;11.38;10.15;;;-0.50;99.90;;;;;;5031633;28;20251;-75
2021/01/29 07:48:40;;;;;;;12.77;11.57;;;-0.70;99.90;;;;;;5029008;28;20221;-76
2021/01/29 07:51:14;;;;;;;10.73;9.82;;;-0.60;99.90;;;;;;5029879;28;20219;-75
2021/01/29 07:53:51;;;;;;;10.48;9.57;;;-0.50;99.90;;;;;;5034924;28;20226;-77
2021/01/29 07:56:50;;;;;;;10.63;9.68;;;-0.40;99.90;;;;;;5030906;28;20220;-73
2021/01/29 07:59:31;;;;;;;9.38;8.57;;;-0.30;99.90;;;;;;5030275;28;20211;-77
2021/01/29 08:02:11;;;;;;;10.93;10.02;;;-0.10;99.90;;;;;;5028265;28;20715;-75
2021/01/29 08:04:52;;;;;;;9.55;8.73;;;0.00;99.90;;;;;;5032119;28;20226;-75
2021/01/29 08:07:26;;;;;;;11.05;9.88;;;0.20;99.90;;;;;;5044458;28;20591;-73
2021/01/29 08:09:56;;;;;;;10.25;9.35;;;0.50;99.90;;;;;;5052491;28;20585;-74
2021/01/29 08:12:23;;;;;;;9.95;9.15;;;0.60;99.90;;;;;;5054437;28;20221;-75
2021/01/29 08:15:16;;;;;;;10.75;9.77;;;0.90;99.90;;;;;;5053788;28;20233;-74
2021/01/29 08:18:25;;;;;;;10.35;9.45;;;1.10;99.90;;;;;;5045568;28;20231;-78
2021/01/29 08:21:19;;;;;;;10.55;9.55;;;1.50;99.90;;;;;;5028772;28;20577;-77
2021/01/29 08:23:58;;;;;;;12.18;11.10;;;2.10;99.90;;;;;;5019811;28;20685;-76
2021/01/29 08:26:36;;;;;;;12.38;11.20;;;3.00;99.90;;;;;;5033811;28;20210;-74
2021/01/29 08:29:45;;;;;;;13.35;12.05;;;3.60;99.90;;;;;;5029372;28;20233;-78
2021/01/29 08:32:41;;;;;;;11.73;10.70;;;3.90;99.90;;;;;;5044781;28;20222;-75
2021/01/29 08:35:43;;;;;;;11.23;10.15;;;3.60;99.90;;;;;;5056202;28;20715;-76
2021/01/29 08:38:16;;;;;;;13.27;11.98;;;3.90;99.90;;;;;;5051898;28;20232;-73
2021/01/29 08:40:55;;;;;;;13.35;12.13;;;4.20;99.90;;;;;;5060767;28;20222;-75
2021/01/29 08:43:38;;;;;;;13.70;12.30;;;4.40;99.90;;;;;;5054784;28;20222;-75
2021/01/29 08:46:43;;;;;;;13.23;12.02;;;4.60;99.90;;;;;;5054575;28;20233;-74
2021/01/29 08:49:41;;;;;;;13.98;12.48;;;4.30;99.90;;;;;;5024419;28;20214;-78
2021/01/29 08:52:20;;;;;;;12.50;11.25;;;3.70;99.90;;;;;;5056091;28;20307;-74
2021/01/29 08:55:15;;;;;;;13.20;11.90;;;3.50;99.90;;;;;;5038867;28;20211;-76
2021/01/29 08:57:53;;;;;;;14.63;13.23;;;3.30;99.90;;;;;;5045378;28;20214;-75
2021/01/29 09:00:24;;;;;;;13.35;12.10;;;2.60;99.90;;;;;;5057117;28;20723;-75
2021/01/29 09:02:59;;;;;;;13.40;12.10;;;2.10;99.90;;;;;;5056156;28;20229;-74
2021/01/29 09:05:30;;;;;;;12.48;11.38;;;1.90;99.90;;;;;;5063173;28;20279;-75
2021/01/29 09:07:58;;;;;;;13.75;12.55;;;2.20;99.90;;;;;;5057318;28;20221;-78
2021/01/29 09:10:38;;;;;;;12.73;11.63;;;2.70;99.90;;;;;;5067677;28;20347;-78
2021/01/29 09:13:07;;;;;;;12.93;11.70;;;3.20;99.90;;;;;;5060009;28;20241;-75
2021/01/29 09:15:50;;;;;;;15.57;13.43;;;3.80;99.90;;;;;;5061997;28;20229;-75
2021/01/29 09:18:25;;;;;;;14.63;13.23;;;4.40;99.90;;;;;;5054233;28;20621;-74
2021/01/29 09:21:05;;;;;;;14.50;13.10;;;4.70;99.90;;;;;;5064471;28;20576;-75
2021/01/29 09:23:38;;;;;;;14.00;12.73;;;5.10;99.90;;;;;;5061729;28;20736;-75
2021/01/29 09:26:15;;;;;;;13.63;12.23;;;5.40;99.90;;;;;;5057791;28;20468;-75
2021/01/29 09:28:45;;;;;;;12.60;11.40;;;5.40;99.90;;;;;;5056042;28;20288;-75
2021/01/29 09:31:18;;;;;;;14.27;12.88;;;5.70;99.90;;;;;;5056881;28;20596;-75
2021/01/29 09:33:49;;;;;;;15.55;13.10;;;6.00;99.90;;;;;;5054946;28;20222;-75
2021/01/29 09:36:19;;;;;;;14.85;12.50;;;7.20;99.90;;;;;;5055079;28;20222;-74
2021/01/29 09:38:50;;;;;;;16.63;13.32;;;8.70;99.90;;;;;;5053408;28;20707;-76
2021/01/29 09:41:22;;;;;;;13.27;11.98;;;9.70;99.90;;;;;;5054914;28;20225;-75
2021/01/29 09:43:57;;;;;;;11.75;10.65;;;10.00;99.90;;;;;;5052900;28;20226;-77
2021/01/29 09:46:28;;;;;;;12.90;11.70;;;9.40;99.90;;;;;;5056075;28;20244;-76
2021/01/29 09:49:01;;;;;;;13.25;11.95;;;9.40;99.90;;;;;;5050664;28;20222;-74
2021/01/29 09:51:42;;;;;;;13.05;11.27;;;10.20;99.90;;;;;;5056691;28;20218;-74
2021/01/29 09:54:20;;;;;;;13.13;11.55;;;9.30;99.90;;;;;;5053940;28;20723;-74
2021/01/29 09:56:54;;;;;;;11.82;10.82;;;8.60;99.90;;;;;;5054887;28;20227;-75
2021/01/29 09:59:33;;;;;;;12.05;10.85;;;8.20;99.90;;;;;;5053567;28;20860;-75
2021/01/29 10:02:05;;;;;;;12.48;11.30;;;7.70;99.90;;;;;;5059180;28;20203;-77
2021/01/29 10:05:04;;;;;;;11.02;9.95;;;6.90;99.90;;;;;;5063595;28;20773;-75
2021/01/29 10:07:33;;;;;;;12.30;11.25;;;5.80;99.90;;;;;;5055359;28;21153;-74
2021/01/29 10:10:05;;;;;;;11.70;10.52;;;5.30;99.90;;;;;;5053254;28;20226;-74
2021/01/29 10:12:38;;;;;;;12.32;10.10;;;4.40;99.90;;;;;;5060158;28;20632;-74
2021/01/29 10:15:13;;;;;;;12.32;11.27;;;3.70;99.90;;;;;;5055521;28;20217;-74
2021/01/29 10:17:46;;;;;;;13.35;12.05;;;3.30;99.90;;;;;;5059057;28;21105;-73
2021/01/29 10:20:22;;;;;;;13.35;12.05;;;2.90;99.90;;;;;;5058171;28;20717;-73
2021/01/29 10:23:04;;;;;;;12.15;11.02;;;2.50;99.90;;;;;;5060535;28;20642;-73
2021/01/29 10:25:41;;;;;;;12.20;11.02;;;2.60;99.90;;;;;;5067407;28;20244;-74
2021/01/29 10:28:16;;;;;;;12.68;11.43;;;2.60;99.90;;;;;;5050242;28;20227;-73
2021/01/29 10:30:50;;;;;;;14.77;13.38;;;2.30;99.90;;;;;;5040242;28;20269;-74
2021/01/29 10:33:23;;;;;;;14.45;13.07;;;1.90;99.90;;;;;;5034870;28;20586;-74
2021/01/29 10:35:56;;;;;;;14.02;12.82;;;1.60;99.90;;;;;;5036845;28;20232;-74
2021/01/29 10:38:30;;;;;;;14.02;12.52;;;1.50;99.90;;;;;;5032998;28;20225;-74
2021/01/29 10:41:14;;;;;;;15.18;13.55;;;1.50;99.90;;;;;;5042976;28;20262;-75
2021/01/29 10:43:47;;;;;;;14.68;13.32;;;1.60;99.90;;;;;;5048079;28;20283;-74
2021/01/29 10:46:49;;;;;;;14.50;13.25;;;1.70;99.90;;;;;;5052850;28;20245;-74
2021/01/29 10:49:24;;;;;;;14.40;13.10;;;1.60;99.90;;;;;;5047945;28;20221;-74
2021/01/29 10:52:02;;;;;;;14.73;13.43;;;1.60;99.90;;;;;;5031601;28;20230;-73
2021/01/29 10:54:35;;;;;;;13.77;12.57;;;1.70;99.90;;;;;;5042210;28;20223;-75
2021/01/29 10:57:11;;;;;;;14.52;13.20;;;1.80;99.90;;;;;;5041522;28;20228;-73
2021/01/29 10:59:46;;;;;;;12.82;11.68;;;2.00;99.90;;;;;;5041077;28;20214;-72
2021/01/29 11:02:23;;;;;;;12.40;11.10;;;2.10;99.90;;;;;;5057656;28;20279;-73
2021/01/29 11:04:58;;;;;;;13.73;12.32;;;2.20;99.90;;;;;;5057008;28;20230;-73
2021/01/29 11:07:28;;;;;;;13.57;12.30;;;2.40;99.90;;;;;;5055482;28;20272;-73
2021/01/29 11:10:01;;;;;;;13.48;12.25;;;2.60;99.90;;;;;;5056919;28;20229;-73
2021/01/29 11:12:33;;;;;;;12.88;11.77;;;2.80;99.90;;;;;;5054403;28;20241;-74
2021/01/29 11:15:08;;;;;;;11.88;10.77;;;3.00;99.90;;;;;;5054575;28;20229;-73
2021/01/29 11:17:40;;;;;;;13.18;12.00;;;3.30;99.90;;;;;;5053049;28;20301;-75
2021/01/29 11:20:17;;;;;;;14.27;12.88;;;3.90;99.90;;;;;;5052189;28;20213;-75
2021/01/29 11:22:56;;;;;;;12.43;11.32;;;4.50;99.90;;;;;;5055467;28;20221;-74
2021/01/29 11:25:50;;;;;;;12.60;11.55;;;4.60;99.90;;;;;;5052250;28;20732;-74
2021/01/29 11:28:53;;;;;;;15.27;13.27;;;4.60;99.90;;;;;;5054583;28;20206;-75
2021/01/29 11:31:35;;;;;;;14.27;12.95;;;4.30;99.90;;;;;;5013911;28;20214;-74
2021/01/29 11:34:03;;;;;;;16.88;13.98;;;4.20;99.90;;;;;;5038995;28;20327;-75
2021/01/29 11:36:37;;;;;;;14.60;13.30;;;4.20;99.90;;;;;;5035806;28;20242;-75
2021/01/29 11:39:12;;;;;;;16.25;14.65;;;4.40;99.90;;;;;;5036519;28;20279;-75
2021/01/29 11:41:54;;;;;;;14.45;13.05;;;4.30;99.90;;;;;;5035857;28;20236;-76
2021/01/29 11:44:32;;;;;;;15.05;13.48;;;4.00;99.90;;;;;;5038846;28;20809;-76
2021/01/29 11:47:05;;;;;;;13.27;11.98;;;3.70;99.90;;;;;;5041161;28;20222;-76
2021/01/29 11:49:37;;;;;;;14.48;13.13;;;3.50;99.90;;;;;;5046198;28;20227;-75
2021/01/29 11:52:13;;;;;;;13.68;12.43;;;3.40;99.90;;;;;;5034469;28;20856;-76
2021/01/29 11:54:47;;;;;;;14.55;13.13;;;3.50;99.90;;;;;;5042052;28;20218;-75
2021/01/29 11:57:19;;;;;;;15.07;13.55;;;4.00;99.90;;;;;;5037523;28;20206;-76
2021/01/29 12:00:02;;;;;;;16.45;14.82;;;4.80;99.90;;;;;;5039274;28;20227;-76
2021/01/29 12:02:33;;;;;;;18.67;14.18;;;5.60;99.90;;;;;;5035841;28;20227;-76
2021/01/29 12:05:19;;;;;;;14.18;12.80;;;6.20;99.90;;;;;;5033559;28;20219;-76
2021/01/29 12:07:53;;;;;;;15.00;13.40;;;6.10;99.90;;;;;;5029405;28;20849;-75
2021/01/29 12:10:27;;;;;;;16.73;14.48;;;5.70;99.90;;;;;;5030676;28;22234;-75
2021/01/29 12:12:57;;;;;;;15.35;13.75;;;5.20;99.90;;;;;;5030250;28;20231;-76
2021/01/29 12:15:35;;;;;;;15.48;13.93;;;5.10;99.90;;;;;;5036106;28;20215;-76
2021/01/29 12:18:08;;;;;;;15.00;13.60;;;5.00;99.90;;;;;;5032859;28;20230;-75
2021/01/29 12:20:37;;;;;;;14.40;13.00;;;4.60;99.90;;;;;;5034891;28;20224;-75
2021/01/29 12:23:13;;;;;;;15.15;13.75;;;4.40;99.90;;;;;;5030558;28;20807;-76
2021/01/29 12:26:08;;;;;;;14.57;13.25;;;4.10;99.90;;;;;;5031180;28;20756;-76
2021/01/29 12:29:22;;;;;;;15.85;14.35;;;4.00;99.90;;;;;;5052813;28;20230;-76
2021/01/29 12:32:00;;;;;;;14.88;13.38;;;3.80;99.90;;;;;;4969253;28;20778;-76
2021/01/29 12:34:31;;;;;;;15.00;13.32;;;3.50;99.90;;;;;;5053502;28;20229;-76
2021/01/29 12:37:02;;;;;;;13.30;11.93;;;3.30;99.90;;;;;;5048221;28;20222;-75
2021/01/29 12:39:37;;;;;;;13.27;12.05;;;3.10;99.90;;;;;;5055895;28;20272;-74
2021/01/29 12:42:11;;;;;;;15.95;14.45;;;3.00;99.90;;;;;;5051604;28;20225;-76
2021/01/29 12:44:44;;;;;;;16.50;14.85;;;2.90;99.90;;;;;;5046361;28;20217;-75
2021/01/29 12:47:20;;;;;;;15.10;13.73;;;2.80;99.90;;;;;;5048157;28;20244;-75
2021/01/29 12:49:55;;;;;;;15.52;14.00;;;2.80;99.90;;;;;;5046845;28;20336;-75
2021/01/29 12:52:27;;;;;;;16.08;14.40;;;2.80;99.90;;;;;;5046009;28;20218;-75
2021/01/29 12:55:05;;;;;;;17.48;14.32;;;2.90;99.90;;;;;;5048414;28;20222;-74
2021/01/29 12:57:33;;;;;;;13.15;12.02;;;3.10;99.90;;;;;;5042069;28;20706;-75
2021/01/29 13:00:10;;;;;;;13.63;12.32;;;3.40;99.90;;;;;;5045607;28;20271;-77
2021/01/29 13:02:55;;;;;;;16.98;15.32;;;3.60;99.90;;;;;;5047374;28;20295;-76
2021/01/29 13:05:38;;;;;;;15.38;13.98;;;3.90;99.90;;;;;;5054305;28;20761;-76
2021/01/29 13:08:35;;;;;;;15.10;13.65;;;4.00;99.90;;;;;;5048736;28;20247;-75
2021/01/29 13:11:17;;;;;;;16.58;14.98;;;4.10;99.90;;;;;;5048341;28;20218;-75
2021/01/29 13:13:54;;;;;;;15.43;14.02;;;4.10;99.90;;;;;;5041975;28;20852;-75
2021/01/29 13:16:27;;;;;;;14.38;13.02;;;4.50;99.90;;;;;;5052511;28;20252;-75
2021/01/29 13:19:03;;;;;;;14.07;12.52;;;5.10;99.90;;;;;;5046349;28;20241;-75
2021/01/29 13:21:35;;;;;;;14.63;13.13;;;5.70;99.90;;;;;;5041444;28;20632;-77
2021/01/29 13:24:06;;;;;;;13.40;12.15;;;6.20;99.90;;;;;;5048778;28;20229;-75
2021/01/29 13:26:44;;;;;;;12.60;11.48;;;6.50;99.90;;;;;;5048724;28;20228;-75
2021/01/29 13:29:21;;;;;;;14.82;13.43;;;6.60;99.90;;;;;;5048924;28;22186;-75
2021/01/29 13:31:49;;;;;;;13.07;11.85;;;6.40;99.90;;;;;;5054288;28;20235;-77
2021/01/29 13:34:20;;;;;;;12.73;11.63;;;6.20;99.90;;;;;;5054135;28;20303;-75
2021/01/29 13:37:01;;;;;;;12.63;11.40;;;6.00;99.90;;;;;;5027322;28;20232;-74
2021/01/29 13:39:31;;;;;;;12.45;11.25;;;6.00;99.90;;;;;;5062196;28;20314;-75
2021/01/29 13:42:01;;;;;;;12.43;11.32;;;6.10;99.90;;;;;;5039055;28;20273;-75